Chester Springs, PA

4:41 PM EDT on September 22, 2014 (GMT -0400)
Chester County Carlson | Change Station
CLOSE
Current Station
Airport
Location: Coatesville,
Elevation: 659 ft
Nearby Weather Stations

Elev 659 ft 39.98 °N, 75.87 °W | Updated 26 minutes ago

Mostly Cloudy
Mostly Cloudy
64 °F
Feels Like 64 °F
N
14
Wind Variable Wind from NNW
Gusts 18 mph

Today
High -- | Low -- °F
--% Chance of Precip.
Yesterday
High -- | Low -- °F
Precip. -- in
6:50 AM 6:59 PM
Waning Crescent, 2% visible
Pressure 30.02 in
Visibility 10.0 miles
Clouds Scattered Clouds 4600 ft
Dew Point 46 °F
Humidity 52%
Rainfall 0.00 in
Snow Depth Not available.
UV 2 out of 12
Pollen 2.70 out of 12
Air Quality Not available.
Flu Activity Not available.
METAR KMQS 222015Z AUTO 33012G16KT 10SM SCT046 18/08 A3002 RMK AO2

More Conditions Fewer Conditions

Pressure 30.02 in
Visibility 10.0 miles
Clouds Scattered Clouds 4600 ft
Dew Point 46 °F
Humidity 52%
Rainfall 0.00 in
Snow Depth Not available.
UV 2 out of 12
Pollen 2.70 out of 12
Air Quality Not available.
Flu Activity Not available.
METAR KMQS 222015Z AUTO 33012G16KT 10SM SCT046 18/08 A3002 RMK AO2

More Conditions Fewer Conditions

10-Day Weather Forecast

Almanac

Astronomy

Sep. 22, 2014 Rise Set
Actual Time 6:50 AM EDT 6:59 PM EDT
Civil Twilight 6:23 AM EDT 7:26 PM EDT
Nautical Twilight 5:51 AM EDT 7:58 PM EDT
Astronomical Twilight 5:19 AM EDT 8:30 PM EDT
Moon 5:16 AM EDT 6:06 PM EDT
Length of Visible Light 13h 03m
Length of Day
12h 09m
Tomorrow will be 2m 37s shorter.
Waning Crescent, 2% of the Moon is Illuminated
Today
Waning Crescent
Sep 24
New
Oct 1
First Quarter
Oct 8
Full
Oct 15
Last Quarter

Today's Extremes

State Highs State Lows

Community

WunderPhotos

Upload Photos

1,755,522 photos uploaded!

WunderBlogs® & News

Nearby

Snow Depth

Station Depth Elevation
No new snow has been reported.

Earthquake Activity

City Distance Mag. Time & Date
No recent earthquake activity has been reported nearby.
Minimum magnitude displayed is 2.5.

Coastal Water Temperatures

Place Temperature
Ship John Shoal, NJ 73.0 °F
Cape May, NJ 75.0 °F
Reedy Point, DE 73.0 °F
Delaware City, DE 73.0 °F
Marcus Hook, PA 73.9 °F

Nearby Weather Stations